sensor_id;sensor_type;location;lat;lon;timestamp;temperature;humidity
13856;DHT22;6998;53.608;9.958;2023-02-11T10:30:03;8.50;99.90
13856;DHT22;6998;53.608;9.958;2023-02-11T12:05:47;8.90;99.90
13856;DHT22;6998;53.608;9.958;2023-02-11T12:08:26;9.00;99.90
13856;DHT22;6998;53.608;9.958;2023-02-11T12:11:17;9.00;99.90
13856;DHT22;6998;53.608;9.958;2023-02-11T12:24:15;8.90;99.90
13856;DHT22;6998;53.608;9.958;2023-02-11T12:34:45;8.90;99.90
13856;DHT22;6998;53.608;9.958;2023-02-11T14:08:22;8.90;99.90
13856;DHT22;6998;53.608;9.958;2023-02-11T14:14:24;9.00;99.90
13856;DHT22;6998;53.608;9.958;2023-02-11T14:17:37;9.10;99.90
13856;DHT22;6998;53.608;9.958;2023-02-11T14:20:37;9.10;99.90
13856;DHT22;6998;53.608;9.958;2023-02-11T14:23:24;9.00;99.90
13856;DHT22;6998;53.608;9.958;2023-02-11T14:26:05;9.00;99.90
13856;DHT22;6998;53.608;9.958;2023-02-11T14:31:59;9.00;99.90
13856;DHT22;6998;53.608;9.958;2023-02-11T14:34:56;8.90;99.90
13856;DHT22;6998;53.608;9.958;2023-02-11T14:37:35;8.90;99.90
13856;DHT22;6998;53.608;9.958;2023-02-11T14:40:25;8.90;99.90
13856;DHT22;6998;53.608;9.958;2023-02-11T14:42:53;8.90;99.90
13856;DHT22;6998;53.608;9.958;2023-02-11T14:45:24;8.90;99.90
13856;DHT22;6998;53.608;9.958;2023-02-11T15:23:06;8.30;99.90
13856;DHT22;6998;53.608;9.958;2023-02-11T16:00:35;8.10;99.90
13856;DHT22;6998;53.608;9.958;2023-02-11T16:49:37;8.00;99.90
13856;DHT22;6998;53.608;9.958;2023-02-11T16:52:46;7.90;99.90
13856;DHT22;6998;53.608;9.958;2023-02-11T17:09:37;8.10;99.90
13856;DHT22;6998;53.608;9.958;2023-02-11T17:12:14;8.00;99.90
13856;DHT22;6998;53.608;9.958;2023-02-11T17:28:12;8.00;99.90
13856;DHT22;6998;53.608;9.958;2023-02-11T17:30:40;8.00;99.90
13856;DHT22;6998;53.608;9.958;2023-02-11T18:05:47;7.80;99.90
13856;DHT22;6998;53.608;9.958;2023-02-11T18:26:52;8.00;99.90
13856;DHT22;6998;53.608;9.958;2023-02-11T18:54:23;8.00;99.90
13856;DHT22;6998;53.608;9.958;2023-02-11T18:56:50;8.00;99.90
13856;DHT22;6998;53.608;9.958;2023-02-11T19:15:02;8.10;99.90
13856;DHT22;6998;53.608;9.958;2023-02-11T19:17:34;8.10;99.90
13856;DHT22;6998;53.608;9.958;2023-02-11T19:20:03;8.10;99.90
13856;DHT22;6998;53.608;9.958;2023-02-11T19:22:35;8.10;99.90
13856;DHT22;6998;53.608;9.958;2023-02-11T19:25:03;8.10;99.90
13856;DHT22;6998;53.608;9.958;2023-02-11T19:35:37;8.10;99.90
13856;DHT22;6998;53.608;9.958;2023-02-11T19:38:04;8.10;99.90
13856;DHT22;6998;53.608;9.958;2023-02-11T19:40:32;8.10;99.90
13856;DHT22;6998;53.608;9.958;2023-02-11T19:43:09;8.20;99.90
13856;DHT22;6998;53.608;9.958;2023-02-11T19:45:41;8.20;99.90
13856;DHT22;6998;53.608;9.958;2023-02-11T19:55:24;8.10;99.90
13856;DHT22;6998;53.608;9.958;2023-02-11T19:57:59;8.00;99.90
13856;DHT22;6998;53.608;9.958;2023-02-11T20:35:45;8.20;99.90
13856;DHT22;6998;53.608;9.958;2023-02-11T20:38:32;8.10;99.90
13856;DHT22;6998;53.608;9.958;2023-02-11T20:41:06;8.10;99.90
13856;DHT22;6998;53.608;9.958;2023-02-11T20:43:34;8.10;99.90
13856;DHT22;6998;53.608;9.958;2023-02-11T20:46:03;8.10;99.90
13856;DHT22;6998;53.608;9.958;2023-02-11T20:48:31;8.10;99.90
13856;DHT22;6998;53.608;9.958;2023-02-11T20:51:07;8.20;99.90
13856;DHT22;6998;53.608;9.958;2023-02-11T20:53:35;8.10;99.90
13856;DHT22;6998;53.608;9.958;2023-02-11T20:56:06;8.00;99.90
13856;DHT22;6998;53.608;9.958;2023-02-11T20:58:35;8.20;99.90
13856;DHT22;6998;53.608;9.958;2023-02-11T21:01:07;8.10;99.90
13856;DHT22;6998;53.608;9.958;2023-02-11T21:03:37;8.10;99.90
13856;DHT22;6998;53.608;9.958;2023-02-11T21:06:06;8.20;99.90
13856;DHT22;6998;53.608;9.958;2023-02-11T21:08:34;8.20;99.90
13856;DHT22;6998;53.608;9.958;2023-02-11T21:11:01;8.20;99.90
13856;DHT22;6998;53.608;9.958;2023-02-11T21:13:33;8.10;99.90
13856;DHT22;6998;53.608;9.958;2023-02-11T21:16:07;8.20;99.90
13856;DHT22;6998;53.608;9.958;2023-02-11T21:18:42;8.10;99.90
13856;DHT22;6998;53.608;9.958;2023-02-11T21:24:05;8.10;99.90
13856;DHT22;6998;53.608;9.958;2023-02-11T21:26:33;8.10;99.90
13856;DHT22;6998;53.608;9.958;2023-02-11T21:29:01;8.00;99.90
13856;DHT22;6998;53.608;9.958;2023-02-11T21:31:30;8.10;99.90
13856;DHT22;6998;53.608;9.958;2023-02-11T21:33:59;8.00;99.90
13856;DHT22;6998;53.608;9.958;2023-02-11T21:36:27;8.00;99.90
13856;DHT22;6998;53.608;9.958;2023-02-11T21:38:57;8.00;99.90
13856;DHT22;6998;53.608;9.958;2023-02-11T21:41:24;8.10;99.90
13856;DHT22;6998;53.608;9.958;2023-02-11T21:43:53;8.00;99.90
13856;DHT22;6998;53.608;9.958;2023-02-11T21:46:21;8.00;99.90
13856;DHT22;6998;53.608;9.958;2023-02-11T21:48:50;8.00;99.90
13856;DHT22;6998;53.608;9.958;2023-02-11T21:51:20;8.00;99.90
13856;DHT22;6998;53.608;9.958;2023-02-11T21:54:29;8.00;99.90
13856;DHT22;6998;53.608;9.958;2023-02-11T21:56:59;7.90;99.90
13856;DHT22;6998;53.608;9.958;2023-02-11T21:59:28;7.90;99.90
13856;DHT22;6998;53.608;9.958;2023-02-11T22:01:56;7.90;99.90
13856;DHT22;6998;53.608;9.958;2023-02-11T22:04:25;7.90;99.90
13856;DHT22;6998;53.608;9.958;2023-02-11T22:06:52;7.80;99.90
13856;DHT22;6998;53.608;9.958;2023-02-11T22:09:23;7.80;99.90
13856;DHT22;6998;53.608;9.958;2023-02-11T22:11:50;7.80;99.90
13856;DHT22;6998;53.608;9.958;2023-02-11T22:14:18;7.80;99.90
13856;DHT22;6998;53.608;9.958;2023-02-11T22:17:02;7.90;99.90
13856;DHT22;6998;53.608;9.958;2023-02-11T22:19:30;7.90;99.90
13856;DHT22;6998;53.608;9.958;2023-02-11T22:23:01;7.90;99.90
13856;DHT22;6998;53.608;9.958;2023-02-11T22:25:48;7.90;99.90
13856;DHT22;6998;53.608;9.958;2023-02-11T22:28:22;7.90;99.90
13856;DHT22;6998;53.608;9.958;2023-02-11T22:30:59;7.90;99.90
13856;DHT22;6998;53.608;9.958;2023-02-11T22:36:40;7.90;99.90
13856;DHT22;6998;53.608;9.958;2023-02-11T22:39:23;7.90;99.90
13856;DHT22;6998;53.608;9.958;2023-02-11T22:41:58;7.80;99.90
13856;DHT22;6998;53.608;9.958;2023-02-11T22:45:01;7.70;99.90
13856;DHT22;6998;53.608;9.958;2023-02-11T22:47:43;7.70;99.90
13856;DHT22;6998;53.608;9.958;2023-02-11T22:53:38;7.70;99.90
